Time;durP1;ratioP1;P1;durP2;ratioP2;P2;SDS_P1;SDS_P2;PMS_P1;PMS_P2;Temp;Humidity;BMP_temperature;BMP_pressure;BME280_temperature;BME280_humidity;BME280_pressure;Samples;Min_cycle;Max_cycle;Signal;HPM_P1;HPM_P2
2023/04/12 00:01:47;;;;;;;16.45;11.00;;;;;;;9.51;80.51;98255.31;4965557;28;20036;-94
2023/04/12 00:04:14;;;;;;;16.35;10.57;;;;;;;9.44;80.36;98244.94;4966268;28;20034;-93
2023/04/12 00:06:40;;;;;;;16.58;10.50;;;;;;;9.47;80.37;98244.34;4965716;28;20034;-94
2023/04/12 00:09:07;;;;;;;19.00;11.05;;;;;;;9.49;79.50;98249.44;4965432;28;20038;-94
2023/04/12 00:11:32;;;;;;;17.55;11.38;;;;;;;9.47;79.81;98243.56;4964603;28;20034;-94
2023/04/12 00:13:58;;;;;;;16.20;10.20;;;;;;;9.45;79.74;98240.34;4965781;28;20065;-92
2023/04/12 00:16:23;;;;;;;18.20;11.18;;;;;;;9.53;79.55;98238.91;4964910;28;20489;-92
2023/04/12 00:18:50;;;;;;;17.90;10.00;;;;;;;9.58;78.51;98236.16;4963837;28;20033;-94
2023/04/12 00:21:22;;;;;;;16.33;10.02;;;;;;;9.70;77.54;98237.31;4964854;28;20117;-94
2023/04/12 00:23:48;;;;;;;16.77;10.68;;;;;;;9.64;78.71;98235.00;4966704;28;20050;-94
2023/04/12 00:26:14;;;;;;;15.60;10.23;;;;;;;9.68;78.13;98230.63;4965279;28;20497;-94
2023/04/12 00:28:40;;;;;;;15.68;10.10;;;;;;;9.58;79.06;98228.88;4965671;28;20485;-94
2023/04/12 00:31:06;;;;;;;18.25;10.15;;;;;;;9.72;78.36;98228.97;4965631;28;20041;-94
2023/04/12 00:33:32;;;;;;;14.20;9.68;;;;;;;9.63;78.49;98220.75;4966861;28;20030;-93
2023/04/12 00:35:58;;;;;;;14.70;9.80;;;;;;;9.65;78.20;98226.66;4965323;28;20065;-94
2023/04/12 00:38:23;;;;;;;16.70;9.98;;;;;;;9.51;78.84;98223.88;4980274;28;20031;-94
2023/04/12 00:40:49;;;;;;;13.70;9.25;;;;;;;9.56;79.08;98231.06;4964360;28;20030;-94
2023/04/12 00:43:17;;;;;;;13.95;9.75;;;;;;;9.41;79.33;98209.78;4964438;28;20034;-94
2023/04/12 00:45:44;;;;;;;14.90;9.85;;;;;;;9.47;78.88;98212.09;4964759;28;20046;-93
2023/04/12 00:48:09;;;;;;;14.10;9.45;;;;;;;9.51;79.16;98215.00;4965058;28;20038;-94
2023/04/12 00:50:35;;;;;;;13.88;9.15;;;;;;;9.40;79.47;98208.16;4965368;28;20030;-95
2023/04/12 00:53:01;;;;;;;13.70;9.30;;;;;;;9.32;79.37;98204.25;4964350;28;20041;-94
2023/04/12 00:55:26;;;;;;;15.93;9.85;;;;;;;9.35;79.94;98213.63;4964721;28;20031;-94
2023/04/12 00:57:52;;;;;;;12.27;8.15;;;;;;;9.50;78.75;98233.03;4966373;28;20563;-94
2023/04/12 01:00:18;;;;;;;14.75;8.43;;;;;;;9.53;78.72;98230.84;4966312;28;20034;-93
2023/04/12 01:02:49;;;;;;;13.77;8.38;;;;;;;9.45;79.13;98213.50;4982002;28;20038;-94
2023/04/12 01:05:20;;;;;;;13.38;8.77;;;;;;;9.31;78.98;98205.34;4982110;28;20035;-94
2023/04/12 01:08:07;;;;;;;13.85;8.90;;;;;;;9.43;78.91;98212.97;4966747;28;20038;-93
2023/04/12 01:11:11;;;;;;;16.30;7.97;;;;;;;9.42;79.46;98209.50;4996726;28;20045;-94
2023/04/12 01:13:43;;;;;;;11.88;8.63;;;;;;;9.39;79.38;98206.59;4961076;28;20050;-94
2023/04/12 01:16:14;;;;;;;13.00;8.80;;;;;;;9.30;79.79;98195.69;4981421;28;20062;-94
2023/04/12 01:18:41;;;;;;;15.93;9.38;;;;;;;9.26;79.69;98190.09;4984817;28;20061;-94
2023/04/12 01:21:14;;;;;;;14.48;8.80;;;;;;;9.31;79.81;98199.97;4969766;28;20032;-94
2023/04/12 01:23:47;;;;;;;11.55;8.32;;;;;;;9.39;79.02;98195.84;4970326;28;20050;-93
2023/04/12 01:26:32;;;;;;;11.55;7.75;;;;;;;9.50;78.93;98205.34;4985005;28;20034;-94
2023/04/12 01:28:58;;;;;;;12.73;8.20;;;;;;;9.44;79.20;98193.06;4984408;28;20031;-93
2023/04/12 01:31:24;;;;;;;10.88;8.15;;;;;;;9.39;78.82;98185.09;4985020;28;20053;-92
2023/04/12 01:33:50;;;;;;;16.15;9.40;;;;;;;9.39;79.07;98182.41;4969564;28;20033;-93
2023/04/12 01:36:20;;;;;;;14.52;8.57;;;;;;;9.51;78.71;98201.59;4984929;28;20022;-93
2023/04/12 01:38:46;;;;;;;16.05;8.50;;;;;;;9.50;78.68;98187.34;4967554;28;20038;-93
2023/04/12 01:41:11;;;;;;;11.40;8.52;;;;;;;9.40;79.04;98179.44;4968541;28;20112;-93
2023/04/12 01:43:41;;;;;;;10.93;7.82;;;;;;;9.53;78.37;98185.19;4967724;28;20029;-94
2023/04/12 01:46:07;;;;;;;11.75;7.90;;;;;;;9.53;78.11;98177.91;4984146;28;20098;-93
2023/04/12 01:48:32;;;;;;;12.32;7.88;;;;;;;9.63;78.21;98182.31;4968832;28;20104;-93
2023/04/12 01:51:09;;;;;;;12.75;7.97;;;;;;;9.78;77.50;98187.47;4985108;28;20042;-93
2023/04/12 01:53:56;;;;;;;10.98;7.40;;;;;;;9.77;77.44;98193.94;4984773;28;20030;-95
2023/04/12 01:56:21;;;;;;;10.50;7.65;;;;;;;9.70;77.38;98183.56;5000353;28;20057;-93
2023/04/12 01:58:47;;;;;;;12.30;7.68;;;;;;;9.65;77.58;98180.97;4968522;28;20034;-93
2023/04/12 02:01:15;;;;;;;15.18;7.80;;;;;;;9.63;78.00;98185.00;4984009;28;20062;-93
2023/04/12 02:03:41;;;;;;;14.00;8.02;;;;;;;9.59;77.85;98181.31;4968732;28;20554;-93
2023/04/12 02:06:07;;;;;;;11.23;7.50;;;;;;;9.67;77.57;98189.53;4968683;28;20033;-94
2023/04/12 02:08:32;;;;;;;11.20;7.90;;;;;;;9.50;77.47;98176.59;4968614;28;20034;-94
2023/04/12 02:10:57;;;;;;;12.77;8.07;;;;;;;9.63;77.50;98182.31;4967748;28;20035;-93
2023/04/12 02:13:24;;;;;;;12.50;8.52;;;;;;;9.60;77.33;98175.63;4966832;28;20031;-92
2023/04/12 02:15:53;;;;;;;15.52;8.25;;;;;;;9.70;77.29;98180.06;4968311;28;20511;-93
2023/04/12 02:18:19;;;;;;;12.45;7.95;;;;;;;9.63;77.51;98169.69;4967921;28;20038;-94
2023/04/12 02:20:45;;;;;;;12.05;7.70;;;;;;;9.74;77.52;98167.66;4983672;28;20053;-93
2023/04/12 02:23:11;;;;;;;11.63;8.10;;;;;;;9.69;77.71;98168.53;4968011;28;20042;-92
2023/04/12 02:25:37;;;;;;;11.68;8.15;;;;;;;9.64;77.96;98167.81;4967339;28;20034;-95
2023/04/12 02:28:02;;;;;;;15.18;9.00;;;;;;;9.58;78.12;98167.06;4984297;28;20038;-94
2023/04/12 02:30:28;;;;;;;14.73;8.48;;;;;;;9.53;78.20;98163.69;4967742;28;20041;-93
2023/04/12 02:32:55;;;;;;;11.52;8.52;;;;;;;9.63;78.38;98193.06;4967193;28;20030;-93
2023/04/12 02:35:21;;;;;;;12.85;8.45;;;;;;;9.74;77.88;98182.97;4984007;28;20030;-93
2023/04/12 02:37:47;;;;;;;14.73;9.13;;;;;;;9.71;77.00;98170.91;4968485;28;20026;-93
2023/04/12 02:40:14;;;;;;;14.20;8.60;;;;;;;9.81;77.67;98173.44;4983889;28;20034;-93
2023/04/12 02:42:42;;;;;;;12.45;8.00;;;;;;;9.61;77.90;98161.13;4967483;28;20489;-93
2023/04/12 02:45:09;;;;;;;13.30;9.07;;;;;;;9.65;78.81;98169.38;4967178;28;20085;-93
2023/04/12 02:47:35;;;;;;;13.32;8.48;;;;;;;9.58;78.17;98167.06;4967551;28;20038;-94
2023/04/12 02:50:01;;;;;;;12.88;8.90;;;;;;;9.69;77.75;98168.53;4967880;28;20049;-92
2023/04/12 02:52:28;;;;;;;14.32;8.65;;;;;;;9.64;78.32;98159.75;4967907;28;20035;-93
2023/04/12 02:54:54;;;;;;;13.10;8.98;;;;;;;9.53;78.56;98153.72;4967212;28;20033;-94
2023/04/12 02:57:20;;;;;;;13.63;9.20;;;;;;;9.53;78.56;98153.72;4967193;28;20034;-93
2023/04/12 02:59:46;;;;;;;13.73;9.07;;;;;;;9.51;78.48;98158.59;4966779;28;20041;-94
2023/04/12 03:02:11;;;;;;;13.68;8.82;;;;;;;9.53;77.87;98161.00;4983847;28;20030;-93
2023/04/12 03:04:38;;;;;;;13.45;8.45;;;;;;;9.53;77.88;98152.94;4984219;28;20103;-93
2023/04/12 03:07:04;;;;;;;14.90;9.40;;;;;;;9.49;78.86;98158.88;4967206;28;20041;-87
2023/04/12 03:09:31;;;;;;;13.82;9.38;;;;;;;9.55;78.35;98156.91;4964204;28;20054;-87
2023/04/12 03:11:56;;;;;;;11.13;7.38;;;;;;;9.66;77.94;98160.25;4977631;28;20105;-86
2023/04/12 03:14:22;;;;;;;11.60;8.25;;;;;;;9.59;78.12;98173.28;4963316;28;21444;-86
2023/04/12 03:16:50;;;;;;;13.77;8.02;;;;;;;9.63;78.20;98160.81;4962744;28;20038;-86
2023/04/12 03:19:15;;;;;;;12.07;7.38;;;;;;;9.74;77.17;98169.53;4979722;28;20134;-86
2023/04/12 03:21:41;;;;;;;10.63;7.53;;;;;;;9.69;76.89;98162.34;4979639;28;20525;-85
2023/04/12 03:24:06;;;;;;;12.18;7.13;;;;;;;9.74;77.06;98164.16;4979428;28;20101;-86
2023/04/12 03:26:32;;;;;;;10.82;7.05;;;;;;;9.73;76.57;98162.56;4962821;28;20042;-85
2023/04/12 03:29:03;;;;;;;13.00;7.43;;;;;;;9.74;77.30;98167.66;4963067;28;20097;-85
2023/04/12 03:31:30;;;;;;;10.40;7.03;;;;;;;9.81;76.40;98178.81;4960580;28;20031;-85
2023/04/12 03:33:55;;;;;;;11.73;7.55;;;;;;;9.83;76.83;98168.56;4950694;28;20041;-85
2023/04/12 03:36:21;;;;;;;11.23;7.03;;;;;;;9.84;76.55;98177.44;4963047;28;20042;-85
2023/04/12 03:38:46;;;;;;;9.07;6.55;;;;;;;9.68;76.60;98171.50;4962956;28;20092;-85
2023/04/12 03:41:12;;;;;;;12.93;7.75;;;;;;;9.69;76.85;98168.53;4978223;28;20425;-86
2023/04/12 03:43:37;;;;;;;12.02;6.93;;;;;;;9.60;77.21;98169.47;4979125;28;20042;-86
2023/04/12 03:46:03;;;;;;;12.20;6.70;;;;;;;9.70;76.28;98167.44;4964001;28;20038;-86
2023/04/12 03:48:29;;;;;;;10.88;6.72;;;;;;;9.76;74.68;98164.69;4979694;28;20101;-86
2023/04/12 03:50:54;;;;;;;10.65;6.95;;;;;;;9.79;76.02;98175.63;4962879;28;20030;-87
2023/04/12 03:53:20;;;;;;;11.93;7.43;;;;;;;9.79;76.67;98172.94;4963126;28;20034;-86
2023/04/12 03:55:45;;;;;;;10.77;7.63;;;;;;;9.66;77.44;98179.06;4980908;28;20378;-89
2023/04/12 03:58:12;;;;;;;16.40;9.80;;;;;;;9.65;77.71;98166.69;4980600;28;20034;-88
2023/04/12 04:00:38;;;;;;;17.42;9.85;;;;;;;9.70;76.56;98167.44;4967252;28;20034;-93
2023/04/12 04:03:04;;;;;;;12.77;8.02;;;;;;;9.83;74.45;98173.94;4966924;28;20062;-93
2023/04/12 04:05:30;;;;;;;10.23;7.43;;;;;;;9.96;75.39;98183.19;4967611;28;20041;-91
2023/04/12 04:07:59;;;;;;;9.80;7.30;;;;;;;9.94;75.77;98171.91;4967519;28;20065;-94
2023/04/12 04:10:26;;;;;;;15.60;9.43;;;;;;;10.04;74.74;98181.69;4967800;28;20488;-93
2023/04/12 04:12:52;;;;;;;15.18;8.55;;;;;;;9.97;75.92;98170.53;4966692;28;20095;-93
2023/04/12 04:15:17;;;;;;;12.95;7.80;;;;;;;10.12;75.71;98191.78;4968469;28;20113;-95
2023/04/12 04:17:43;;;;;;;11.32;8.05;;;;;;;10.08;75.63;98188.06;4968340;28;20034;-95
2023/04/12 04:20:11;;;;;;;10.68;7.57;;;;;;;10.06;75.82;98191.06;4970941;28;20057;-95
2023/04/12 04:22:37;;;;;;;12.10;8.15;;;;;;;9.89;76.57;98188.13;4970070;28;20108;-95
2023/04/12 04:25:02;;;;;;;15.52;8.90;;;;;;;9.72;76.46;98169.84;4970562;28;20042;-95
2023/04/12 04:27:29;;;;;;;13.23;8.32;;;;;;;9.66;76.90;98165.63;4988263;28;20061;-95
2023/04/12 04:29:58;;;;;;;12.65;9.02;;;;;;;9.95;76.93;98186.94;4988375;28;20049;-88
2023/04/12 04:32:24;;;;;;;13.82;8.70;;;;;;;9.98;76.43;98194.44;4963543;28;20484;-87
2023/04/12 04:34:50;;;;;;;11.80;7.43;;;;;;;9.85;72.65;98179.81;4964012;28;20124;-87
2023/04/12 04:37:17;;;;;;;7.22;5.07;;;;;;;9.95;70.26;98184.25;4963622;28;20037;-87
2023/04/12 04:39:43;;;;;;;7.57;4.47;;;;;;;10.17;69.30;98188.19;4963328;28;20037;-87
2023/04/12 04:42:08;;;;;;;6.40;4.55;;;;;;;10.28;68.44;98195.81;4964225;28;20035;-86
2023/04/12 04:44:34;;;;;;;34.13;19.75;;;;;;;10.37;69.52;98184.41;4963675;28;20404;-88
2023/04/12 04:47:00;;;;;;;10.20;5.53;;;;;;;10.49;69.36;98198.97;4962829;28;20030;-87
2023/04/12 04:49:25;;;;;;;11.20;6.80;;;;;;;10.62;68.99;98196.59;4961556;28;20038;-87
2023/04/12 04:51:51;;;;;;;13.13;10.20;;;;;;;10.55;67.76;98191.59;4959434;28;20038;-87
2023/04/12 04:54:16;;;;;;;8.73;5.07;;;;;;;10.60;68.77;98196.09;4962333;28;20485;-87
2023/04/12 04:56:42;;;;;;;5.82;4.20;;;;;;;10.55;66.80;98183.53;4964291;28;20216;-87
2023/04/12 04:59:19;;;;;;;7.30;4.57;;;;;;;10.66;66.26;98190.31;4964496;28;20413;-87
2023/04/12 05:01:45;;;;;;;7.82;4.90;;;;;;;10.58;68.00;98198.28;4948338;28;20034;-89
2023/04/12 05:04:11;;;;;;;7.80;5.13;;;;;;;10.70;68.63;98198.59;4957805;28;20038;-89
2023/04/12 05:06:39;;;;;;;6.10;4.35;;;;;;;10.53;66.31;98172.25;4945946;28;20038;-90
2023/04/12 05:09:05;;;;;;;7.88;5.07;;;;;;;10.65;66.98;98183.34;4965194;28;20069;-89
2023/04/12 05:11:31;;;;;;;6.72;4.32;;;;;;;10.82;67.58;98211.56;4982565;28;20044;-96
2023/04/12 05:13:57;;;;;;;6.93;4.60;;;;;;;10.54;67.27;98203.44;4967298;28;20034;-95
2023/04/12 05:16:24;;;;;;;9.05;5.32;;;;;;;10.43;68.55;98180.53;4970686;28;20413;-95
2023/04/12 05:18:53;;;;;;;8.27;5.50;;;;;;;10.51;69.32;98187.91;4969466;28;20438;-93
2023/04/12 05:21:18;;;;;;;9.93;5.25;;;;;;;10.58;68.73;98195.59;4952468;28;20038;-94
2023/04/12 05:23:59;;;;;;;6.45;4.80;;;;;;;10.69;67.15;98189.72;4954425;28;20075;-94
2023/04/12 05:26:37;;;;;;;7.40;4.97;;;;;;;10.79;65.53;98202.22;4977086;28;20075;-95
2023/04/12 05:29:03;;;;;;;9.15;5.13;;;;;;;10.76;64.85;98204.69;4938836;29;20063;-92
2023/04/12 05:31:34;;;;;;;6.78;4.82;;;;;;;10.81;64.59;98201.88;4957962;29;20040;-93
2023/04/12 05:34:02;;;;;;;17.38;11.57;;;;;;;10.83;66.10;98213.16;4960478;29;20083;-90
2023/04/12 05:36:28;;;;;;;9.68;5.82;;;;;;;10.72;65.81;98191.03;4964272;28;20097;-91
2023/04/12 05:38:57;;;;;;;9.77;6.55;;;;;;;10.67;66.59;98191.13;4961215;29;20062;-90
2023/04/12 05:41:22;;;;;;;7.03;4.80;;;;;;;10.82;65.34;98198.13;4961150;29;20069;-88
2023/04/12 05:43:48;;;;;;;22.38;14.13;;;;;;;10.80;66.42;98217.25;4943646;29;20027;-92
2023/04/12 05:46:16;;;;;;;7.93;5.88;;;;;;;10.84;66.31;98215.56;4958390;29;20031;-90
2023/04/12 05:48:43;;;;;;;8.70;4.65;;;;;;;10.65;65.85;98188.72;4957355;29;20032;-89
2023/04/12 05:51:10;;;;;;;6.97;5.13;;;;;;;10.71;65.74;98198.31;4957856;29;20046;-89
2023/04/12 05:53:39;;;;;;;6.43;4.68;;;;;;;10.62;66.49;98185.81;4963665;29;20039;-95
2023/04/12 05:56:05;;;;;;;6.55;5.22;;;;;;;10.43;66.34;98175.13;4963907;29;20031;-95
2023/04/12 05:58:32;;;;;;;7.00;5.13;;;;;;;10.54;66.87;98213.44;4952914;29;20051;-95
2023/04/12 06:01:00;;;;;;;8.88;5.40;;;;;;;10.55;68.72;98215.84;4990391;28;20042;-95
2023/04/12 06:03:29;;;;;;;13.77;5.75;;;;;;;10.43;68.00;98184.00;4969238;28;20031;-95
2023/04/12 06:05:54;;;;;;;8.85;5.75;;;;;;;10.50;66.88;98189.03;4971973;28;20036;-95
2023/04/12 06:09:04;;;;;;;8.05;6.05;;;;;;;10.75;67.16;98211.16;4973005;29;20054;-95
2023/04/12 06:12:08;;;;;;;10.52;6.30;;;;;;;10.62;67.09;98177.75;4970243;29;20035;-93
2023/04/12 06:14:35;;;;;;;7.43;5.93;;;;;;;10.77;66.02;98182.03;4969132;28;20146;-94
2023/04/12 06:17:04;;;;;;;10.32;7.18;;;;;;;10.67;66.15;98172.28;4952435;29;20039;-94
2023/04/12 06:19:32;;;;;;;7.97;5.80;;;;;;;10.77;65.67;98173.97;4939943;29;20118;-95
2023/04/12 06:21:58;;;;;;;6.88;5.20;;;;;;;10.82;65.18;98181.97;4947363;28;20039;-93
2023/04/12 06:24:30;;;;;;;7.82;5.20;;;;;;;10.94;65.81;98181.47;4957022;28;20046;-94
2023/04/12 06:27:00;;;;;;;9.18;5.55;;;;;;;10.96;64.49;98171.97;4972349;28;20039;-95
2023/04/12 06:30:27;;;;;;;7.70;5.53;;;;;;;11.10;64.61;98201.59;4961473;28;20034;-95
2023/04/12 06:35:46;;;;;;;8.05;5.40;;;;;;;11.23;64.17;98189.22;4965117;29;20035;-94
2023/04/12 06:38:12;;;;;;;9.60;5.40;;;;;;;11.21;63.79;98176.03;4933641;29;20049;-93
2023/04/12 06:40:40;;;;;;;9.60;5.63;;;;;;;11.42;63.55;98194.47;4967791;29;20042;-94
2023/04/12 06:43:08;;;;;;;8.57;6.10;;;;;;;11.52;62.85;98188.84;4933890;29;20042;-96
2023/04/12 06:45:34;;;;;;;8.68;5.63;;;;;;;11.39;63.12;98168.91;4939875;28;20046;-95
2023/04/12 06:48:01;;;;;;;6.38;4.95;;;;;;;11.31;62.69;98153.47;4940465;28;20543;-95
2023/04/12 06:50:28;;;;;;;9.70;5.72;;;;;;;11.56;62.54;98183.63;4955146;28;20035;-94
2023/04/12 06:52:54;;;;;;;9.02;5.45;;;;;;;11.64;62.44;98196.41;4936393;28;20046;-93
2023/04/12 06:55:20;;;;;;;10.00;6.50;;;;;;;11.58;63.28;98179.56;4938584;28;20039;-92
2023/04/12 06:57:50;;;;;;;11.02;7.32;;;;;;;11.49;62.69;98165.19;4936236;28;20045;-94
2023/04/12 07:00:19;;;;;;;18.98;11.13;;;;;;;11.58;63.26;98179.56;4953082;28;20097;-94
2023/04/12 07:03:17;;;;;;;8.25;5.60;;;;;;;11.79;62.67;98187.97;4956091;28;20035;-94
2023/04/12 07:05:49;;;;;;;8.35;5.57;;;;;;;11.83;62.23;98190.84;4974247;28;20063;-95
2023/04/12 07:08:15;;;;;;;10.18;5.35;;;;;;;11.63;63.01;98167.84;4957682;28;20035;-94
2023/04/12 07:10:41;;;;;;;8.70;6.20;;;;;;;11.95;63.06;98195.72;4957168;28;20069;-93
2023/04/12 07:13:07;;;;;;;9.25;6.18;;;;;;;11.75;62.45;98170.81;4954744;28;20034;-92
2023/04/12 07:15:36;;;;;;;6.45;5.25;;;;;;;11.72;61.26;98164.13;4955452;28;20082;-94
2023/04/12 07:18:02;;;;;;;9.48;6.15;;;;;;;12.03;61.30;98184.19;4969922;28;20042;-94
2023/04/12 07:21:00;;;;;;;9.55;6.13;;;;;;;12.17;60.92;98194.94;4956556;28;20038;-96
2023/04/12 07:23:30;;;;;;;7.90;5.00;;;;;;;12.23;60.34;98191.00;4972217;28;20039;-95
2023/04/12 07:26:02;;;;;;;11.48;5.68;;;;;;;12.20;60.11;98186.19;4957558;28;20110;-93
2023/04/12 07:28:37;;;;;;;9.27;5.65;;;;;;;12.17;59.69;98184.94;4957781;28;20039;-94
2023/04/12 07:31:09;;;;;;;8.82;5.43;;;;;;;12.12;60.05;98180.47;4958776;28;20042;-94
2023/04/12 07:33:45;;;;;;;8.80;5.75;;;;;;;12.32;60.75;98218.81;4973549;28;20034;-91
2023/04/12 07:36:10;;;;;;;7.40;5.20;;;;;;;12.38;60.06;98184.41;4968036;28;20470;-94
2023/04/12 07:38:54;;;;;;;8.13;4.80;;;;;;;12.65;58.66;98219.31;4951359;28;20121;-96
2023/04/12 07:41:22;;;;;;;9.90;5.30;;;;;;;12.66;58.83;98183.13;4991904;28;20043;-93
2023/04/12 07:43:48;;;;;;;6.03;4.25;;;;;;;12.78;56.75;98201.44;4974667;28;20039;-93
2023/04/12 07:46:14;;;;;;;6.78;4.43;;;;;;;12.66;56.84;98193.94;4950371;28;20041;-93
2023/04/12 07:48:42;;;;;;;7.05;4.38;;;;;;;12.93;58.13;98221.84;4951780;28;20069;-93
2023/04/12 07:51:08;;;;;;;7.28;4.45;;;;;;;12.91;57.50;98203.25;4949361;28;20066;-94
2023/04/12 07:53:33;;;;;;;5.78;4.10;;;;;;;12.89;56.03;98202.75;4951442;28;20037;-93
2023/04/12 07:56:03;;;;;;;6.32;4.25;;;;;;;12.88;56.46;98203.06;4950971;28;20489;-95
2023/04/12 07:58:29;;;;;;;11.45;4.15;;;;;;;13.00;55.49;98213.28;4949089;28;20046;-93
2023/04/12 08:00:56;;;;;;;6.97;4.38;;;;;;;13.00;55.85;98213.28;4952148;28;20125;-95
2023/04/12 08:04:11;;;;;;;6.43;4.07;;;;;;;12.94;55.01;98216.13;4972281;28;20023;-96
2023/04/12 08:06:39;;;;;;;10.10;4.03;;;;;;;12.74;55.40;98187.78;4978628;28;20047;-96
2023/04/12 08:09:10;;;;;;;7.75;3.97;;;;;;;13.02;55.30;98214.56;4955302;29;20019;-96
2023/04/12 08:11:52;;;;;;;41.10;19.17;;;;;;;12.74;55.09;98181.56;4937000;29;20421;-95
2023/04/12 08:14:18;;;;;;;6.68;3.30;;;;;;;12.75;54.01;98172.34;4983451;28;20027;-89
2023/04/12 08:16:48;;;;;;;6.85;3.78;;;;;;;12.81;53.76;98189.22;4985063;28;20026;-89
2023/04/12 08:19:27;;;;;;;9.90;5.05;;;;;;;12.76;54.06;98170.44;4967139;28;20027;-91
2023/04/12 08:22:03;;;;;;;7.82;5.00;;;;;;;12.70;53.34;98177.88;4958768;28;20052;-89
2023/04/12 08:24:32;;;;;;;6.15;3.05;;;;;;;12.94;53.31;98204.50;4967488;28;20509;-89
2023/04/12 08:27:26;;;;;;;5.93;3.33;;;;;;;12.97;53.44;98208.50;4987937;28;20035;-94
2023/04/12 08:29:52;;;;;;;5.57;3.20;;;;;;;12.87;52.61;98186.06;4931234;29;20043;-88
2023/04/12 08:32:20;;;;;;;10.55;4.57;;;;;;;13.08;52.25;98223.31;4914159;29;20138;-87
2023/04/12 08:34:46;;;;;;;6.38;3.85;;;;;;;12.91;51.52;98183.53;4913656;29;20107;-87
2023/04/12 08:37:37;;;;;;;7.45;3.28;;;;;;;12.99;51.23;98220.59;4916274;29;20101;-90
2023/04/12 08:40:23;;;;;;;4.10;2.50;;;;;;;12.95;51.33;98195.31;4933973;29;20043;-91
2023/04/12 08:42:48;;;;;;;4.90;2.70;;;;;;;13.12;50.63;98198.06;4917815;29;20729;-87
2023/04/12 08:45:15;;;;;;;5.13;2.78;;;;;;;13.27;51.47;98177.09;4911265;29;20059;-87
2023/04/12 08:47:42;;;;;;;5.50;2.50;;;;;;;13.34;51.75;98191.78;4925639;29;20050;-88
2023/04/12 08:50:08;;;;;;;10.23;4.65;;;;;;;13.13;52.48;98177.22;4912704;29;20039;-88
2023/04/12 08:52:36;;;;;;;5.78;2.42;;;;;;;13.27;50.44;98152.78;4931755;29;20039;-90
2023/04/12 08:55:03;;;;;;;2.88;2.25;;;;;;;13.21;49.76;98181.84;4914124;29;20043;-90
2023/04/12 08:57:42;;;;;;;6.90;2.95;;;;;;;13.44;48.75;98177.16;4948312;29;20087;-90
2023/04/12 09:00:25;;;;;;;5.20;2.35;;;;;;;13.68;48.59;98197.53;4960886;28;20034;-87
2023/04/12 09:02:52;;;;;;;7.65;4.25;;;;;;;13.72;48.10;98193.09;4990579;28;20099;-91
2023/04/12 09:05:18;;;;;;;4.45;2.60;;;;;;;13.57;49.09;98199.75;4985238;28;20038;-91
2023/04/12 09:07:48;;;;;;;7.63;2.92;;;;;;;13.79;47.66;98203.44;4970653;28;20042;-89
2023/04/12 09:10:32;;;;;;;14.95;8.75;;;;;;;13.73;48.44;98197.38;4969462;28;20425;-89
2023/04/12 09:13:00;;;;;;;3.92;2.17;;;;;;;13.64;47.91;98175.75;4986619;28;20034;-89
2023/04/12 09:15:29;;;;;;;5.30;2.40;;;;;;;13.98;48.24;98200.41;4995022;28;20023;-90
2023/04/12 09:18:23;;;;;;;4.28;2.80;;;;;;;14.05;47.92;98185.28;4974466;28;20025;-89
2023/04/12 09:20:48;;;;;;;6.47;2.47;;;;;;;14.11;47.58;98196.72;4980017;28;20168;-90
2023/04/12 09:23:19;;;;;;;8.30;4.07;;;;;;;13.90;47.97;98194.69;4961827;28;20069;-92
2023/04/12 09:25:47;;;;;;;3.97;2.40;;;;;;;13.63;47.65;98149.78;4969600;28;20039;-89
2023/04/12 09:28:19;;;;;;;4.18;2.47;;;;;;;13.93;47.67;98199.44;4972986;28;20172;-88
2023/04/12 09:30:53;;;;;;;51.67;27.88;;;;;;;13.64;47.41;98169.53;5000812;28;20018;-89
2023/04/12 09:33:34;;;;;;;3.17;2.05;;;;;;;13.50;46.38;98165.06;4976018;28;20113;-89
2023/04/12 09:36:04;;;;;;;2.63;2.00;;;;;;;13.61;47.41;98159.34;4985610;28;20041;-88
2023/04/12 09:38:30;;;;;;;3.58;2.35;;;;;;;13.82;47.06;98190.06;4971292;28;20058;-88
2023/04/12 09:41:18;;;;;;;4.63;1.92;;;;;;;13.53;47.39;98185.28;4973158;28;20048;-88
2023/04/12 09:43:45;;;;;;;5.40;2.28;;;;;;;13.59;47.57;98166.97;4968975;28;20117;-89
2023/04/12 09:46:16;;;;;;;4.57;2.40;;;;;;;13.87;46.39;98189.91;4970297;28;20112;-90
2023/04/12 09:48:57;;;;;;;3.92;2.42;;;;;;;13.89;47.02;98184.19;4966831;28;20034;-89
2023/04/12 09:51:32;;;;;;;3.63;2.38;;;;;;;14.10;47.15;98187.00;4970350;28;20426;-88
2023/04/12 09:54:07;;;;;;;4.80;3.10;;;;;;;14.28;47.01;98194.00;4969670;28;20045;-88
2023/04/12 09:56:38;;;;;;;7.43;2.20;;;;;;;14.26;45.85;98208.97;4967330;28;21588;-90
2023/04/12 09:59:05;;;;;;;4.82;2.17;;;;;;;14.35;45.46;98188.06;4975499;28;20038;-89
2023/04/12 10:01:38;;;;;;;4.53;2.10;;;;;;;14.28;46.03;98193.22;4971203;28;20038;-88
2023/04/12 10:04:26;;;;;;;8.70;3.03;;;;;;;14.24;46.00;98179.50;4973291;28;20062;-88
2023/04/12 10:06:53;;;;;;;3.55;2.40;;;;;;;14.24;45.63;98174.09;4969090;28;20042;-86
2023/04/12 10:13:28;;;;;;;3.83;2.15;;;;;;;14.58;45.60;98210.34;4920793;29;20090;-89
2023/04/12 10:16:01;;;;;;;2.42;1.85;;;;;;;14.57;44.90;98197.94;4919659;29;20035;-87
2023/04/12 10:18:29;;;;;;;4.32;1.90;;;;;;;14.37;45.12;98172.31;4946067;28;20034;-88
2023/04/12 10:21:07;;;;;;;3.42;2.58;;;;;;;14.53;44.30;98186.91;4945231;28;20037;-89
2023/04/12 10:23:32;;;;;;;3.90;2.20;;;;;;;14.65;44.28;98190.88;4948554;28;20081;-89
2023/04/12 10:25:58;;;;;;;3.13;2.13;;;;;;;14.87;44.62;98189.84;4949109;28;20089;-88
2023/04/12 10:28:23;;;;;;;4.68;2.45;;;;;;;14.86;44.05;98172.00;4948561;28;20034;-87
2023/04/12 10:30:51;;;;;;;4.53;2.20;;;;;;;14.93;44.85;98181.19;4948116;28;20038;-90
2023/04/12 10:33:36;;;;;;;4.25;2.50;;;;;;;15.04;43.22;98178.91;4953399;28;20065;-93
2023/04/12 10:36:17;;;;;;;16.95;10.52;;;;;;;15.25;44.13;98164.59;4952580;28;20034;-89
2023/04/12 10:39:06;;;;;;;3.50;2.60;;;;;;;15.38;42.79;98139.16;4927384;29;20453;-89
2023/04/12 10:41:34;;;;;;;6.55;2.80;;;;;;;15.65;42.49;98143.25;4938207;29;20035;-89
2023/04/12 10:44:27;;;;;;;8.13;3.05;;;;;;;15.63;41.91;98150.13;4940317;29;20964;-88
2023/04/12 10:46:53;;;;;;;4.55;2.60;;;;;;;15.49;42.96;98153.13;4916999;29;20181;-92
2023/04/12 10:52:43;;;;;;;5.95;2.35;;;;;;;15.29;43.10;98130.28;4932395;29;20622;-95
2023/04/12 10:55:29;;;;;;;5.85;1.85;;;;;;;15.25;42.19;98135.59;4930135;29;20040;-94
2023/04/12 10:57:55;;;;;;;3.25;1.83;;;;;;;15.02;41.29;98155.97;4947546;29;20194;-94
2023/04/12 11:00:27;;;;;;;2.42;1.60;;;;;;;14.75;42.07;98137.16;4932652;29;20060;-94
2023/04/12 11:03:11;;;;;;;5.25;2.00;;;;;;;14.71;41.87;98157.88;4945628;28;20039;-96
2023/04/12 11:06:00;;;;;;;3.33;1.77;;;;;;;14.91;42.68;98180.72;4976618;28;20043;-95
2023/04/12 11:08:36;;;;;;;2.65;1.90;;;;;;;14.73;43.01;98163.78;4988989;28;20053;-94
2023/04/12 11:11:02;;;;;;;2.78;2.00;;;;;;;15.16;42.56;98187.13;4975933;28;20121;-93
2023/04/12 11:14:02;;;;;;;2.55;2.00;;;;;;;15.20;42.44;98178.34;4970838;28;20050;-94
2023/04/12 11:16:29;;;;;;;7.90;2.85;;;;;;;15.41;41.99;98160.19;4978880;28;20030;-94
2023/04/12 11:19:10;;;;;;;3.33;2.00;;;;;;;15.52;41.92;98187.69;4988009;28;20119;-95
2023/04/12 11:21:54;;;;;;;2.40;1.70;;;;;;;15.50;40.17;98157.41;4971502;28;20034;-94
2023/04/12 11:24:23;;;;;;;4.13;1.92;;;;;;;15.65;39.60;98164.16;4965381;28;20044;-94
2023/04/12 11:29:58;;;;;;;2.97;1.65;;;;;;;15.16;39.38;98161.94;4953431;29;20045;-91
2023/04/12 11:32:34;;;;;;;3.05;1.70;;;;;;;14.99;40.29;98141.16;4943959;29;20039;-91
2023/04/12 11:35:00;;;;;;;5.05;1.88;;;;;;;15.47;40.06;98168.91;4945897;29;20035;-94
2023/04/12 11:37:26;;;;;;;2.67;1.90;;;;;;;15.46;39.53;98192.56;4942773;29;20043;-92
2023/04/12 11:39:53;;;;;;;3.95;1.60;;;;;;;15.13;40.50;98176.97;4945148;29;20051;-91
2023/04/12 11:42:19;;;;;;;4.45;1.77;;;;;;;15.19;40.29;98184.88;4960199;29;20426;-92
2023/04/12 11:44:47;;;;;;;3.67;1.85;;;;;;;15.24;41.23;98209.91;4944185;29;20042;-91
2023/04/12 11:47:20;;;;;;;2.97;1.85;;;;;;;14.95;40.44;98180.88;4945202;29;20510;-92
2023/04/12 11:49:50;;;;;;;2.33;1.73;;;;;;;15.18;40.29;98205.78;4942487;29;20044;-92
2023/04/12 11:52:19;;;;;;;11.43;7.80;;;;;;;14.92;41.25;98197.78;4947506;29;20043;-93
2023/04/12 11:54:46;;;;;;;2.15;1.60;;;;;;;14.97;41.44;98208.44;4947661;29;20105;-93
2023/04/12 11:57:15;;;;;;;2.40;1.55;;;;;;;14.90;42.20;98219.81;4946786;29;20049;-95
2023/04/12 11:59:49;;;;;;;4.68;1.63;;;;;;;14.65;43.11;98194.41;4945779;29;20065;-91